createdAt,value
2022-12-11T00:00:18.539Z,89.36
2022-12-11T00:02:47.357Z,89.54
2022-12-11T00:05:16.224Z,89.57
2022-12-11T00:07:44.911Z,89.71
2022-12-11T00:10:15.320Z,89.52
2022-12-11T00:12:43.974Z,89.66
2022-12-11T00:15:13.624Z,89.93
2022-12-11T00:17:42.643Z,90.19
2022-12-11T00:20:12.430Z,90.04
2022-12-11T00:22:41.374Z,90.01
2022-12-11T00:25:10.828Z,89.78
2022-12-11T00:27:41.471Z,89.75
2022-12-11T00:30:11.413Z,89.89
2022-12-11T00:32:40.302Z,89.79
2022-12-11T00:35:10.042Z,89.73
2022-12-11T00:37:39.239Z,89.91
2022-12-11T00:40:09.417Z,90.31
2022-12-11T00:42:38.312Z,90.31
2022-12-11T00:45:10.045Z,90.33
2022-12-11T00:47:39.175Z,90.15
2022-12-11T00:50:08.967Z,90.60
2022-12-11T00:52:37.813Z,90.68
2022-12-11T00:55:07.422Z,90.83
2022-12-11T00:57:37.474Z,91.03
2022-12-11T01:00:08.850Z,91.42
2022-12-11T01:02:37.786Z,90.61
2022-12-11T01:05:07.798Z,90.50
2022-12-11T01:07:36.769Z,89.97
2022-12-11T01:10:25.216Z,90.01
2022-12-11T01:12:55.224Z,90.51
2022-12-11T01:15:27.208Z,90.71
2022-12-11T01:17:56.320Z,91.08
2022-12-11T01:20:26.195Z,91.14
2022-12-11T01:22:57.207Z,91.21
2022-12-11T01:25:26.604Z,91.36
2022-12-11T01:27:56.415Z,91.51
2022-12-11T01:30:27.488Z,91.47
2022-12-11T01:32:56.244Z,91.49
2022-12-11T01:35:24.968Z,91.70
2022-12-11T01:37:54.297Z,91.77
2022-12-11T01:40:24.392Z,91.83
2022-12-11T01:42:53.047Z,91.60
2022-12-11T01:45:36.477Z,91.77
2022-12-11T01:48:08.516Z,91.64
2022-12-11T01:50:41.206Z,91.69
2022-12-11T01:53:13.601Z,91.32
2022-12-11T01:55:43.101Z,91.37
2022-12-11T01:58:12.728Z,91.51
2022-12-11T02:00:42.879Z,91.79
2022-12-11T02:03:11.748Z,91.95
2022-12-11T02:05:40.488Z,92.28
2022-12-11T02:08:09.881Z,92.23
2022-12-11T02:10:50.249Z,92.08
2022-12-11T02:13:23.253Z,92.04
2022-12-11T02:15:58.883Z,92.02
2022-12-11T02:18:32.906Z,91.75
2022-12-11T02:21:07.583Z,91.41
2022-12-11T02:23:55.381Z,91.07
2022-12-11T02:26:36.081Z,91.07
2022-12-11T02:29:09.610Z,90.83
2022-12-11T02:31:41.145Z,90.66
2022-12-11T02:34:11.725Z,91.06
2022-12-11T02:36:43.133Z,91.04
2022-12-11T02:39:13.596Z,91.01
2022-12-11T02:41:45.450Z,91.22
2022-12-11T02:44:17.918Z,90.99
2022-12-11T02:46:46.796Z,90.73
2022-12-11T02:49:15.758Z,90.87
2022-12-11T02:51:45.479Z,91.23
2022-12-11T02:54:17.562Z,91.16
2022-12-11T02:56:49.292Z,90.61
2022-12-11T02:59:23.230Z,90.72
2022-12-11T03:01:52.356Z,90.75
2022-12-11T03:04:24.768Z,90.35
2022-12-11T03:06:56.032Z,89.98
2022-12-11T03:09:24.647Z,89.89
2022-12-11T03:11:54.172Z,90.18
2022-12-11T03:14:24.285Z,90.29
2022-12-11T03:16:58.526Z,89.63
2022-12-11T03:19:32.566Z,88.93
2022-12-11T03:22:07.717Z,88.51
2022-12-11T03:24:40.992Z,88.41
2022-12-11T03:27:13.844Z,88.69
2022-12-11T03:29:49.332Z,88.73
2022-12-11T03:32:23.133Z,88.70
2022-12-11T03:34:58.427Z,88.37
2022-12-11T03:37:29.018Z,88.79
2022-12-11T03:40:02.334Z,88.86
2022-12-11T03:42:31.289Z,88.67
2022-12-11T03:45:02.056Z,87.92
2022-12-11T03:47:31.853Z,87.86
2022-12-11T03:50:01.617Z,87.67
2022-12-11T03:52:32.437Z,87.24
2022-12-11T03:55:05.250Z,87.79
2022-12-11T03:57:38.104Z,88.62
2022-12-11T04:00:09.692Z,88.00
2022-12-11T04:02:41.399Z,87.96
2022-12-11T04:05:12.027Z,88.45
2022-12-11T04:07:40.974Z,88.58
2022-12-11T04:10:10.108Z,88.87
2022-12-11T04:12:38.794Z,89.01
2022-12-11T04:15:09.632Z,88.74
2022-12-11T04:17:56.186Z,89.14
2022-12-11T04:20:42.542Z,89.18
2022-12-11T04:23:32.739Z,89.18
2022-12-11T04:26:06.053Z,89.30
2022-12-11T04:28:35.244Z,89.04
2022-12-11T04:31:05.946Z,89.09
2022-12-11T04:33:34.940Z,89.12
2022-12-11T04:36:03.695Z,89.59
2022-12-11T04:38:32.434Z,89.23
2022-12-11T04:41:01.745Z,89.53
2022-12-11T04:43:31.089Z,89.24
2022-12-11T04:46:05.985Z,89.29
2022-12-11T04:48:35.143Z,89.45
2022-12-11T04:51:03.751Z,88.73
2022-12-11T04:53:32.735Z,88.52
2022-12-11T04:56:01.346Z,88.30
2022-12-11T04:58:30.308Z,88.12
2022-12-11T05:00:58.907Z,88.29
2022-12-11T05:03:28.946Z,88.67
2022-12-11T05:05:57.699Z,89.11
2022-12-11T05:08:26.334Z,89.08
2022-12-11T05:10:58.380Z,89.02
2022-12-11T05:13:28.111Z,89.28
2022-12-11T05:15:56.724Z,88.86
2022-12-11T05:18:26.012Z,86.00
2022-12-11T05:20:59.883Z,86.05
2022-12-11T05:23:29.533Z,85.03
2022-12-11T05:25:59.352Z,85.40
2022-12-11T05:28:29.764Z,85.04
2022-12-11T05:30:58.943Z,84.67
2022-12-11T05:33:28.134Z,84.44
2022-12-11T05:35:58.302Z,84.87
2022-12-11T05:38:26.951Z,84.65
2022-12-11T05:40:59.524Z,85.00
2022-12-11T05:43:29.306Z,85.52
2022-12-11T05:46:01.650Z,85.82
2022-12-11T05:48:30.339Z,85.88
2022-12-11T05:51:01.324Z,86.46
2022-12-11T05:53:30.550Z,86.55
2022-12-11T05:56:03.699Z,87.24
2022-12-11T05:58:32.719Z,87.29
2022-12-11T06:01:02.374Z,87.84
2022-12-11T06:03:30.999Z,87.80
2022-12-11T06:06:03.270Z,88.36
2022-12-11T06:08:32.068Z,88.38
2022-12-11T06:11:00.747Z,88.80
2022-12-11T06:13:29.530Z,89.17
2022-12-11T06:16:02.525Z,89.39
2022-12-11T06:18:31.511Z,89.36
2022-12-11T06:21:01.498Z,89.28
2022-12-11T06:23:30.374Z,89.37
2022-12-11T06:25:58.978Z,89.82
2022-12-11T06:28:27.579Z,89.66
2022-12-11T06:30:56.401Z,89.89
2022-12-11T06:33:25.414Z,89.92
2022-12-11T06:35:54.222Z,89.83
2022-12-11T06:38:24.615Z,90.19
2022-12-11T06:40:56.950Z,90.43
2022-12-11T06:43:25.611Z,90.67
2022-12-11T06:45:57.926Z,90.78
2022-12-11T06:48:29.063Z,90.77
2022-12-11T06:50:57.963Z,90.65
2022-12-11T06:53:27.907Z,90.21
2022-12-11T06:55:56.723Z,89.60
2022-12-11T06:58:25.414Z,89.70
2022-12-11T07:00:54.100Z,89.79
2022-12-11T07:03:22.889Z,89.77
2022-12-11T07:05:51.499Z,90.42
2022-12-11T07:08:20.450Z,91.14
2022-12-11T07:10:50.453Z,92.22
2022-12-11T07:13:19.200Z,92.46
2022-12-11T07:15:47.816Z,92.37
2022-12-11T07:18:16.690Z,92.62
2022-12-11T07:20:45.924Z,92.43
2022-12-11T07:23:14.624Z,92.94
2022-12-11T07:25:43.216Z,93.59
2022-12-11T07:28:16.613Z,94.15
2022-12-11T07:30:45.512Z,95.24
2022-12-11T07:33:14.357Z,95.81
2022-12-11T07:35:43.031Z,96.10
2022-12-11T07:38:11.654Z,96.62
2022-12-11T07:40:40.408Z,96.61
2022-12-11T07:43:09.078Z,96.70
2022-12-11T07:45:39.624Z,96.33
2022-12-11T07:48:08.349Z,95.12
2022-12-11T07:50:39.930Z,93.85
2022-12-11T07:53:08.701Z,92.81
2022-12-11T07:55:37.387Z,92.26
2022-12-11T07:58:06.351Z,91.34
2022-12-11T08:00:34.943Z,91.36
2022-12-11T08:03:05.113Z,92.03
2022-12-11T08:05:33.783Z,92.22
2022-12-11T08:08:02.464Z,92.34
2022-12-11T08:10:31.182Z,92.25
2022-12-11T08:12:59.754Z,92.06
2022-12-11T08:15:28.486Z,91.98
2022-12-11T08:17:57.105Z,92.14
2022-12-11T08:20:27.091Z,92.14
2022-12-11T08:22:59.204Z,92.40
2022-12-11T08:25:28.062Z,92.63
2022-12-11T08:27:56.702Z,92.67
2022-12-11T08:30:25.381Z,92.50
2022-12-11T08:32:54.114Z,92.19
2022-12-11T08:35:22.909Z,91.80
2022-12-11T08:37:52.960Z,91.43
2022-12-11T08:40:22.135Z,91.31
2022-12-11T08:42:52.248Z,90.48
2022-12-11T08:45:21.046Z,89.55
2022-12-11T08:47:49.680Z,89.19
2022-12-11T08:50:18.513Z,89.13
2022-12-11T08:52:47.102Z,89.26
2022-12-11T08:55:17.200Z,89.36
2022-12-11T08:57:45.876Z,89.52
2022-12-11T09:00:16.330Z,89.37
2022-12-11T09:02:45.112Z,90.04
2022-12-11T09:05:14.057Z,90.18
2022-12-11T09:07:42.799Z,90.44
2022-12-11T09:10:12.061Z,91.15
2022-12-11T09:12:42.689Z,91.29
2022-12-11T09:15:12.558Z,91.51
2022-12-11T09:17:41.694Z,91.89
2022-12-11T09:20:11.050Z,91.97
2022-12-11T09:22:39.957Z,92.27
2022-12-11T09:25:09.586Z,92.38
2022-12-11T09:27:38.614Z,92.44
2022-12-11T09:30:10.129Z,92.45
2022-12-11T09:32:39.858Z,92.31
2022-12-11T09:35:10.929Z,92.40
2022-12-11T09:37:39.883Z,92.70
2022-12-11T09:40:10.969Z,92.61
2022-12-11T09:42:49.025Z,92.12
2022-12-11T09:45:19.389Z,91.96
2022-12-11T09:47:51.094Z,91.89
2022-12-11T09:50:22.530Z,90.89
2022-12-11T09:53:03.696Z,90.51
2022-12-11T09:55:40.486Z,89.65
2022-12-11T09:58:18.239Z,89.71
2022-12-11T10:00:49.670Z,89.91
2022-12-11T10:03:31.476Z,89.85
2022-12-11T10:06:05.302Z,90.07
2022-12-11T10:08:37.956Z,89.98
2022-12-11T10:11:22.196Z,90.26
2022-12-11T10:13:56.239Z,90.26
2022-12-11T10:16:35.858Z,90.35
2022-12-11T10:19:04.579Z,89.96
2022-12-11T10:21:40.290Z,89.77
2022-12-11T10:24:34.678Z,89.33
2022-12-11T10:27:16.276Z,88.83
2022-12-11T10:29:45.218Z,88.34
2022-12-11T10:32:24.447Z,88.76
2022-12-11T10:34:56.843Z,88.66
2022-12-11T10:37:25.520Z,87.81
2022-12-11T10:39:54.269Z,86.82
2022-12-11T10:42:24.099Z,86.53
2022-12-11T10:45:00.723Z,86.27
2022-12-11T10:47:31.220Z,86.66
2022-12-11T10:50:02.078Z,86.27
2022-12-11T10:52:33.915Z,86.27
2022-12-11T10:55:04.902Z,86.58
2022-12-11T10:57:36.327Z,86.81
2022-12-11T11:00:07.656Z,85.60
2022-12-11T11:02:40.245Z,85.52
2022-12-11T11:05:17.355Z,84.68
2022-12-11T11:07:46.229Z,85.08
2022-12-11T11:10:19.640Z,85.07
2022-12-11T11:12:50.862Z,85.09
2022-12-11T11:15:21.454Z,85.56
2022-12-11T11:17:56.295Z,84.33
2022-12-11T11:20:26.662Z,84.18
2022-12-11T11:22:57.463Z,84.31
2022-12-11T11:25:27.389Z,84.18
2022-12-11T11:27:57.934Z,84.77
2022-12-11T11:30:28.334Z,84.42
2022-12-11T11:33:00.745Z,84.35
2022-12-11T11:35:31.335Z,84.20
2022-12-11T11:38:04.214Z,83.71
2022-12-11T11:40:35.314Z,84.34
2022-12-11T11:43:09.035Z,84.55
2022-12-11T11:45:42.405Z,84.23
2022-12-11T11:48:21.985Z,84.13
2022-12-11T11:50:52.030Z,83.10
2022-12-11T11:53:25.068Z,82.29
2022-12-11T11:56:04.330Z,82.24
2022-12-11T11:58:40.817Z,81.99
2022-12-11T12:01:14.239Z,82.47
2022-12-11T12:03:44.460Z,82.23
2022-12-11T12:06:18.869Z,82.38
2022-12-11T12:09:04.434Z,82.43
2022-12-11T12:11:39.047Z,81.50
2022-12-11T12:14:43.702Z,80.02
2022-12-11T12:17:13.632Z,80.60
2022-12-11T12:19:54.499Z,80.50
2022-12-11T12:22:39.128Z,81.41
2022-12-11T12:25:17.993Z,80.36
2022-12-11T12:28:00.815Z,80.94
2022-12-11T12:30:36.569Z,80.40
2022-12-11T12:33:16.667Z,80.60
2022-12-11T12:35:52.120Z,81.25
2022-12-11T12:38:24.666Z,81.79
2022-12-11T12:40:59.383Z,81.30
2022-12-11T12:43:53.646Z,81.30
2022-12-11T12:46:29.250Z,79.98
2022-12-11T12:48:58.626Z,80.40
2022-12-11T12:51:29.233Z,79.57
2022-12-11T12:54:01.775Z,79.21
2022-12-11T12:56:32.850Z,80.07
2022-12-11T12:59:01.635Z,81.12
2022-12-11T13:01:31.006Z,81.60
2022-12-11T13:04:02.499Z,81.85
2022-12-11T13:06:35.678Z,80.73
2022-12-11T13:09:19.062Z,79.85
2022-12-11T13:11:50.259Z,80.69
2022-12-11T13:14:28.749Z,80.77
2022-12-11T13:17:22.111Z,80.18
2022-12-11T13:19:52.896Z,79.70
2022-12-11T13:22:25.714Z,79.71
2022-12-11T13:25:01.783Z,77.14
2022-12-11T13:27:40.390Z,76.56
2022-12-11T13:30:22.372Z,76.39
2022-12-11T13:33:00.579Z,76.80
2022-12-11T13:35:29.659Z,78.01
2022-12-11T13:38:07.838Z,77.70
2022-12-11T13:40:40.819Z,77.74
2022-12-11T13:43:18.810Z,77.28
2022-12-11T13:45:50.271Z,77.76
2022-12-11T13:48:25.703Z,76.66
2022-12-11T13:50:55.660Z,77.50
2022-12-11T13:53:25.818Z,77.07
2022-12-11T13:55:58.912Z,77.58
2022-12-11T13:58:28.725Z,77.86
2022-12-11T14:01:06.224Z,77.75
2022-12-11T14:03:35.259Z,77.41
2022-12-11T14:06:05.140Z,77.52
2022-12-11T14:08:38.277Z,77.90
2022-12-11T14:11:07.199Z,78.04
2022-12-11T14:13:37.232Z,78.31
2022-12-11T14:16:06.519Z,78.56
2022-12-11T14:18:36.819Z,79.09
2022-12-11T14:21:06.982Z,78.61
2022-12-11T14:23:38.195Z,78.93
2022-12-11T14:26:18.418Z,78.80
2022-12-11T14:28:47.179Z,78.48
2022-12-11T14:31:17.939Z,78.68
2022-12-11T14:33:50.736Z,78.86
2022-12-11T14:36:20.717Z,78.52
2022-12-11T14:38:53.861Z,78.12
2022-12-11T14:41:27.314Z,78.33
2022-12-11T14:43:58.624Z,78.58
2022-12-11T14:46:34.051Z,78.61
2022-12-11T14:49:06.519Z,77.66
2022-12-11T14:51:39.771Z,77.30
2022-12-11T14:54:16.088Z,76.86
2022-12-11T14:56:48.167Z,77.58
2022-12-11T14:59:25.470Z,78.01
2022-12-11T15:02:01.680Z,78.58
2022-12-11T15:04:33.245Z,78.99
2022-12-11T15:07:02.001Z,78.86
2022-12-11T15:09:40.618Z,79.51
2022-12-11T15:12:12.813Z,79.60
2022-12-11T15:14:48.111Z,79.73
2022-12-11T15:17:17.059Z,79.33
2022-12-11T15:19:51.045Z,79.76
2022-12-11T15:22:20.170Z,79.80
2022-12-11T15:24:52.249Z,80.61
2022-12-11T15:27:26.683Z,80.79
2022-12-11T15:29:55.473Z,80.64
2022-12-11T15:32:24.504Z,80.45
2022-12-11T15:34:54.887Z,81.12
2022-12-11T15:37:25.734Z,81.04
2022-12-11T15:39:56.919Z,81.04
2022-12-11T15:42:28.972Z,80.40
2022-12-11T15:44:57.944Z,80.46
2022-12-11T15:47:28.608Z,80.91
2022-12-11T15:49:59.454Z,81.05
2022-12-11T15:52:28.349Z,81.24
2022-12-11T15:54:58.367Z,81.07
2022-12-11T15:57:27.057Z,81.07
2022-12-11T15:59:56.500Z,81.50
2022-12-11T16:02:26.734Z,82.08
2022-12-11T16:04:57.732Z,81.96
2022-12-11T16:07:27.376Z,81.58
2022-12-11T16:09:57.337Z,81.87
2022-12-11T16:12:25.973Z,81.57
2022-12-11T16:14:54.671Z,81.63
2022-12-11T16:17:23.226Z,81.80
2022-12-11T16:19:54.223Z,81.83
2022-12-11T16:22:22.855Z,82.52
2022-12-11T16:24:54.711Z,82.65
2022-12-11T16:27:25.538Z,82.70
2022-12-11T16:29:54.140Z,81.96
2022-12-11T16:32:22.803Z,82.25
2022-12-11T16:34:51.350Z,82.24
2022-12-11T16:37:20.217Z,82.60
2022-12-11T16:39:49.078Z,82.04
2022-12-11T16:42:18.571Z,82.30
2022-12-11T16:44:52.300Z,82.09
2022-12-11T16:47:20.871Z,82.65
2022-12-11T16:49:50.314Z,82.50
2022-12-11T16:52:22.139Z,82.97
2022-12-11T16:54:51.075Z,82.87
2022-12-11T16:57:19.620Z,83.42
2022-12-11T16:59:50.290Z,83.05
2022-12-11T17:02:19.541Z,83.35
2022-12-11T17:04:53.712Z,83.04
2022-12-11T17:07:22.932Z,83.43
2022-12-11T17:09:51.640Z,83.24
2022-12-11T17:12:25.640Z,82.86
2022-12-11T17:14:55.881Z,83.20
2022-12-11T17:17:24.815Z,83.32
2022-12-11T17:19:53.457Z,83.34
2022-12-11T17:22:22.291Z,83.45
2022-12-11T17:24:50.972Z,83.55
2022-12-11T17:27:19.610Z,83.39
2022-12-11T17:29:49.544Z,83.86
2022-12-11T17:32:19.858Z,83.79
2022-12-11T17:34:50.444Z,84.01
2022-12-11T17:37:19.369Z,84.45
2022-12-11T17:39:48.201Z,84.25
2022-12-11T17:42:17.043Z,84.03
2022-12-11T17:44:46.490Z,83.90
2022-12-11T17:47:15.359Z,84.21
2022-12-11T17:49:45.451Z,83.68
2022-12-11T17:52:14.261Z,83.48
2022-12-11T17:54:42.976Z,83.83
2022-12-11T17:57:11.594Z,83.58
2022-12-11T17:59:40.245Z,83.34
2022-12-11T18:02:10.575Z,83.77
2022-12-11T18:04:39.742Z,83.78
2022-12-11T18:07:09.693Z,84.33
2022-12-11T18:09:41.324Z,84.23
2022-12-11T18:12:10.701Z,84.07
2022-12-11T18:14:39.501Z,84.16
2022-12-11T18:17:08.568Z,84.18
2022-12-11T18:19:40.242Z,84.19
2022-12-11T18:22:14.640Z,84.08
2022-12-11T18:24:44.346Z,84.51
2022-12-11T18:27:15.142Z,84.37
2022-12-11T18:29:43.771Z,84.11
2022-12-11T18:32:12.741Z,84.08
2022-12-11T18:34:41.388Z,84.18
2022-12-11T18:37:10.465Z,84.16
2022-12-11T18:39:40.607Z,83.95
2022-12-11T18:42:32.288Z,83.81
2022-12-11T18:44:58.253Z,83.81
2022-12-11T18:47:26.856Z,83.95
2022-12-11T18:49:55.773Z,83.93
2022-12-11T18:52:24.539Z,84.25
2022-12-11T18:54:54.478Z,84.19
2022-12-11T18:57:23.191Z,84.38
2022-12-11T18:59:53.154Z,84.43
2022-12-11T19:02:22.193Z,84.56
2022-12-11T19:04:50.848Z,84.69
2022-12-11T19:07:19.573Z,84.70
2022-12-11T19:09:48.597Z,84.63
2022-12-11T19:12:19.621Z,84.98
2022-12-11T19:14:48.742Z,84.72
2022-12-11T19:17:17.531Z,84.67
2022-12-11T19:19:47.377Z,84.58
2022-12-11T19:22:16.105Z,84.67
2022-12-11T19:24:44.736Z,84.92
2022-12-11T19:27:13.962Z,85.25
2022-12-11T19:29:44.208Z,84.94
2022-12-11T19:32:12.903Z,85.02
2022-12-11T19:34:41.680Z,85.18
2022-12-11T19:37:10.469Z,85.21
2022-12-11T19:39:40.528Z,85.43
2022-12-11T19:42:09.207Z,85.52
2022-12-11T19:44:38.105Z,85.43
2022-12-11T19:47:08.123Z,85.64
2022-12-11T19:49:37.005Z,85.27
2022-12-11T19:52:05.701Z,85.53
2022-12-11T19:54:34.299Z,85.75
2022-12-11T19:57:03.056Z,85.50
2022-12-11T19:59:31.760Z,85.68
2022-12-11T20:02:00.543Z,85.87
2022-12-11T20:04:30.700Z,86.43
2022-12-11T20:06:59.279Z,86.48
2022-12-11T20:09:28.062Z,86.46
2022-12-11T20:11:56.852Z,87.05
2022-12-11T20:14:27.341Z,87.08
2022-12-11T20:17:14.843Z,86.91
2022-12-11T20:19:45.277Z,86.87
2022-12-11T20:22:14.216Z,86.87
2022-12-11T20:24:43.325Z,87.21
2022-12-11T20:27:12.489Z,87.63
2022-12-11T20:29:41.343Z,87.95
2022-12-11T20:32:12.234Z,88.04
2022-12-11T20:34:41.261Z,88.31
2022-12-11T20:37:11.220Z,88.53
2022-12-11T20:39:39.964Z,88.50
2022-12-11T20:42:10.924Z,88.51
2022-12-11T20:44:42.821Z,88.49
2022-12-11T20:47:16.115Z,88.37
2022-12-11T20:49:44.988Z,88.61
2022-12-11T20:52:14.970Z,88.58
2022-12-11T20:54:43.758Z,88.40
2022-12-11T20:57:13.508Z,88.33
2022-12-11T20:59:42.238Z,88.37
2022-12-11T21:02:12.716Z,88.29
2022-12-11T21:04:42.355Z,88.70
2022-12-11T21:07:11.787Z,88.53
2022-12-11T21:09:42.096Z,89.05
2022-12-11T21:12:10.771Z,88.88
2022-12-11T21:14:39.657Z,89.19
2022-12-11T21:17:08.336Z,89.21
2022-12-11T21:19:37.007Z,89.04
2022-12-11T21:22:05.665Z,88.90
2022-12-11T21:24:34.281Z,88.91
2022-12-11T21:27:04.399Z,89.63
2022-12-11T21:29:32.975Z,88.37
2022-12-11T21:32:01.977Z,87.86
2022-12-11T21:34:30.718Z,87.73
2022-12-11T21:36:59.577Z,87.37
2022-12-11T21:39:29.544Z,87.65
2022-12-11T21:42:00.548Z,87.60
2022-12-11T21:47:19.475Z,88.46
2022-12-11T21:49:48.099Z,88.33
2022-12-11T21:52:16.940Z,88.68
2022-12-11T21:54:45.606Z,89.21
2022-12-11T21:57:14.188Z,88.92
2022-12-11T21:59:44.290Z,89.14
2022-12-11T22:02:13.118Z,88.93
2022-12-11T22:04:42.142Z,88.84
2022-12-11T22:07:10.740Z,89.04
2022-12-11T22:09:39.698Z,88.49
2022-12-11T22:12:08.806Z,88.24
2022-12-11T22:14:37.432Z,88.21
2022-12-11T22:17:07.413Z,87.89
2022-12-11T22:19:36.051Z,88.24
2022-12-11T22:22:04.652Z,87.37
2022-12-11T22:24:33.485Z,87.01
2022-12-11T22:27:02.178Z,86.96
2022-12-11T22:29:30.794Z,85.52
2022-12-11T22:31:59.492Z,85.23
2022-12-11T22:34:29.690Z,85.74
2022-12-11T22:36:58.629Z,85.89
2022-12-11T22:39:27.920Z,86.37
2022-12-11T22:41:56.998Z,86.25
2022-12-11T22:44:25.842Z,86.25
2022-12-11T22:46:54.498Z,86.16
2022-12-11T22:49:23.277Z,86.24
2022-12-11T22:51:53.380Z,85.69
2022-12-11T22:54:22.641Z,85.64
2022-12-11T22:56:51.601Z,85.47
2022-12-11T22:59:20.379Z,84.70
2022-12-11T23:01:49.345Z,84.74
2022-12-11T23:04:18.405Z,84.45
2022-12-11T23:06:47.271Z,84.88
2022-12-11T23:09:17.514Z,85.13
2022-12-11T23:11:47.144Z,84.66
2022-12-11T23:14:17.933Z,84.75
2022-12-11T23:16:47.696Z,85.75
2022-12-11T23:19:19.629Z,86.35
2022-12-11T23:21:52.697Z,86.73
2022-12-11T23:24:22.777Z,86.99
2022-12-11T23:26:51.532Z,86.80
2022-12-11T23:29:20.409Z,86.28
2022-12-11T23:31:48.981Z,85.75
2022-12-11T23:34:17.766Z,85.56
2022-12-11T23:36:46.385Z,85.54
2022-12-11T23:39:15.099Z,85.51
2022-12-11T23:41:45.044Z,84.92
2022-12-11T23:44:13.656Z,85.29
2022-12-11T23:46:44.940Z,84.26
2022-12-11T23:49:13.622Z,84.12
2022-12-11T23:51:43.906Z,84.07
2022-12-11T23:54:12.516Z,84.23
2022-12-11T23:56:41.148Z,84.81
2022-12-11T23:59:13.509Z,84.68
